Time;durP1;ratioP1;P1;durP2;ratioP2;P2;SDS_P1;SDS_P2;PMS_P1;PMS_P2;Temp;Humidity;BMP_temperature;BMP_pressure;BME280_temperature;BME280_humidity;BME280_pressure;Samples;Min_cycle;Max_cycle;Signal;HPM_P1;HPM_P2
2023/06/07 00:01:54;;;;;;;4.10;3.70;;;;;;;17.20;100.00;100493.61;1439566;90;21342;-80
2023/06/07 00:04:20;;;;;;;6.00;4.03;;;;;;;17.20;100.00;100495.77;1447896;90;22228;-80
2023/06/07 00:06:47;;;;;;;7.40;4.10;;;;;;;17.20;100.00;100491.76;1445078;90;21364;-80
2023/06/07 00:09:14;;;;;;;6.23;4.00;;;;;;;17.20;100.00;100486.41;1444666;90;21401;-79
2023/06/07 00:11:40;;;;;;;7.80;4.27;;;;;;;17.21;100.00;100486.75;1441160;90;22515;-79
2023/06/07 00:14:07;;;;;;;12.33;5.67;;;;;;;17.20;100.00;100485.59;1447266;90;21467;-79
2023/06/07 00:16:33;;;;;;;6.90;4.50;;;;;;;17.16;100.00;100482.47;1445729;90;21608;-79
2023/06/07 00:19:01;;;;;;;5.23;4.47;;;;;;;17.11;100.00;100483.54;1448089;90;21371;-79
2023/06/07 00:21:28;;;;;;;7.33;5.10;;;;;;;17.05;100.00;100485.12;1449055;90;21497;-80
2023/06/07 00:23:54;;;;;;;7.60;4.33;;;;;;;17.01;100.00;100481.69;1449095;90;21408;-81
2023/06/07 00:26:20;;;;;;;6.60;4.17;;;;;;;16.99;100.00;100475.19;1442236;90;21348;-81
2023/06/07 00:28:48;;;;;;;7.37;4.23;;;;;;;17.02;100.00;100479.33;1444730;90;21651;-78
2023/06/07 00:31:15;;;;;;;5.23;4.63;;;;;;;17.05;100.00;100484.30;1448946;90;21386;-79
2023/06/07 00:33:41;;;;;;;8.80;4.87;;;;;;;17.07;100.00;100485.77;1445821;90;21372;-80
2023/06/07 00:36:08;;;;;;;4.53;3.93;;;;;;;17.09;100.00;100484.23;1443101;90;21423;-80
2023/06/07 00:38:35;;;;;;;11.13;4.20;;;;;;;17.08;100.00;100479.91;1454390;90;21854;-80
2023/06/07 00:41:01;;;;;;;5.90;4.00;;;;;;;17.08;100.00;100475.38;1442540;90;21356;-81
2023/06/07 00:43:28;;;;;;;7.70;4.50;;;;;;;17.08;100.00;100474.05;1441538;90;21393;-81
2023/06/07 00:45:56;;;;;;;6.50;4.30;;;;;;;17.05;100.00;100478.44;1444299;89;21342;-81
2023/06/07 00:48:22;;;;;;;7.17;4.77;;;;;;;17.03;100.00;100476.48;1432816;90;21328;-81
2023/06/07 00:50:49;;;;;;;4.43;4.03;;;;;;;17.01;100.00;100472.34;1447227;90;21342;-80
2023/06/07 00:53:16;;;;;;;5.03;4.33;;;;;;;16.99;100.00;100475.19;1432980;90;21520;-81
2023/06/07 00:55:43;;;;;;;5.73;4.93;;;;;;;17.00;100.00;100480.84;1442934;90;22251;-80
2023/06/07 00:58:09;;;;;;;8.63;5.37;;;;;;;17.02;100.00;100472.64;1442817;90;21490;-80
2023/06/07 01:00:37;;;;;;;9.57;4.60;;;;;;;17.04;100.00;100475.45;1441510;90;21393;-81
2023/06/07 01:03:03;;;;;;;9.53;4.43;;;;;;;17.09;100.00;100471.71;1441843;90;21445;-81
2023/06/07 01:05:29;;;;;;;7.00;4.37;;;;;;;17.13;100.00;100468.97;1428298;90;21499;-80
2023/06/07 01:07:56;;;;;;;6.87;4.23;;;;;;;17.17;100.00;100467.25;1445157;90;21394;-81
2023/06/07 01:10:22;;;;;;;6.13;4.57;;;;;;;17.20;100.00;100469.55;1447821;90;21486;-80
2023/06/07 01:12:53;;;;;;;11.33;5.33;;;;;;;17.22;100.00;100462.16;1446954;90;21422;-80
2023/06/07 01:15:19;;;;;;;7.17;5.23;;;;;;;17.21;100.00;100461.34;1434945;90;21408;-80
2023/06/07 01:17:47;;;;;;;8.90;4.47;;;;;;;17.21;100.00;100465.35;1442939;90;22307;-80
2023/06/07 01:20:22;;;;;;;6.37;4.43;;;;;;;17.21;100.00;100461.86;1430027;90;21409;-79
2023/06/07 01:22:52;;;;;;;6.10;4.57;;;;;;;17.18;100.00;100460.39;1448561;90;21563;-81
2023/06/07 01:25:19;;;;;;;5.95;4.08;;;;;;;17.17;100.00;100453.87;1445330;90;21349;-79
2023/06/07 01:28:07;;;;;;;14.37;5.13;;;;;;;17.16;100.00;100450.89;1441824;89;21468;-80
2023/06/07 01:30:34;;;;;;;7.43;4.33;;;;;;;17.13;100.00;100443.56;1419553;91;22235;-81
2023/06/07 01:33:04;;;;;;;4.73;4.20;;;;;;;17.13;100.00;100450.25;1435335;90;21516;-81
2023/06/07 01:35:31;;;;;;;5.75;4.20;;;;;;;17.10;100.00;100444.45;1424523;91;21539;-81
2023/06/07 01:37:59;;;;;;;5.83;3.90;;;;;;;17.08;100.00;100440.63;1432991;90;21383;-79
2023/06/07 01:50:23;;;;;;;6.37;4.63;;;;;;;16.98;100.00;100437.45;1501160;85;22537;-82
2023/06/07 01:52:49;;;;;;;5.10;4.47;;;;;;;16.95;100.00;100435.67;1465908;87;23122;-83
2023/06/07 01:55:16;;;;;;;7.50;5.47;;;;;;;16.94;100.00;100434.81;1457237;89;22013;-83
2023/06/07 01:58:20;;;;;;;6.47;5.13;;;;;;;16.91;100.00;100431.18;1459370;88;22485;-83
2023/06/07 02:01:16;;;;;;;5.93;4.63;;;;;;;16.90;100.00;100432.21;1466221;87;23396;-84
2023/06/07 02:03:51;;;;;;;5.43;4.63;;;;;;;16.91;100.00;100431.18;1455429;88;21433;-86
2023/06/07 02:06:21;;;;;;;5.60;5.07;;;;;;;16.87;100.00;100426.73;1479546;88;21568;-85
2023/06/07 02:08:52;;;;;;;8.95;5.00;;;;;;;16.86;100.00;100423.75;1477283;87;21596;-86
2023/06/07 02:11:22;;;;;;;9.73;4.63;;;;;;;16.89;100.00;100429.23;1472614;88;21499;-81
2023/06/07 02:13:52;;;;;;;11.83;4.85;;;;;;;16.93;100.00;100435.84;1455127;88;21515;-82
2023/06/07 02:16:32;;;;;;;7.67;5.00;;;;;;;16.93;100.00;100429.16;1467137;88;21581;-84
2023/06/07 02:18:59;;;;;;;7.92;5.10;;;;;;;16.96;100.00;100427.95;1454716;88;22533;-84
2023/06/07 02:21:25;;;;;;;9.80;4.63;;;;;;;16.99;100.00;100433.75;1462677;88;21403;-83
2023/06/07 02:23:52;;;;;;;4.97;4.37;;;;;;;17.01;100.00;100420.20;1455799;89;21397;-85
2023/06/07 02:26:20;;;;;;;5.87;4.87;;;;;;;17.01;100.00;100422.36;1460667;89;21491;-84
2023/06/07 02:28:46;;;;;;;6.27;4.87;;;;;;;17.03;100.00;100428.36;1456235;88;21419;-85
2023/06/07 02:31:12;;;;;;;5.90;5.13;;;;;;;17.04;100.00;100423.31;1470500;88;22371;-83
2023/06/07 02:33:38;;;;;;;6.70;4.87;;;;;;;17.05;100.00;100422.29;1459457;88;21514;-85
2023/06/07 02:36:05;;;;;;;8.33;5.10;;;;;;;17.06;100.00;100431.98;1480396;88;21544;-84
2023/06/07 02:38:31;;;;;;;5.80;4.90;;;;;;;17.03;100.00;100431.52;1475524;88;21470;-84
2023/06/07 02:40:57;;;;;;;7.10;4.83;;;;;;;17.01;100.00;100433.05;1457412;88;21464;-84
2023/06/07 02:43:23;;;;;;;10.80;5.23;;;;;;;17.00;100.00;100427.88;1482665;88;22356;-82
2023/06/07 02:45:49;;;;;;;6.27;5.03;;;;;;;16.99;100.00;100432.41;1473454;87;21471;-83
2023/06/07 02:48:16;;;;;;;7.37;4.67;;;;;;;17.02;100.00;100433.36;1444249;89;22302;-83
2023/06/07 02:50:42;;;;;;;6.93;5.03;;;;;;;17.01;100.00;100429.05;1415598;91;21502;-83
2023/06/07 02:53:08;;;;;;;6.63;4.63;;;;;;;17.00;100.00;100427.88;1463970;88;22314;-83
2023/06/07 02:55:34;;;;;;;10.93;5.30;;;;;;;17.00;100.00;100426.03;1463371;88;22518;-82
2023/06/07 02:58:00;;;;;;;6.33;4.77;;;;;;;17.01;100.00;100429.05;1467593;88;21435;-82
2023/06/07 03:00:27;;;;;;;5.90;4.73;;;;;;;17.02;100.00;100428.02;1450981;88;21500;-82
2023/06/07 03:02:53;;;;;;;8.40;5.00;;;;;;;17.02;100.00;100432.03;1451643;88;21436;-82
2023/06/07 03:05:19;;;;;;;17.77;5.87;;;;;;;17.03;100.00;100432.37;1468594;88;21398;-82
2023/06/07 03:07:46;;;;;;;6.93;4.83;;;;;;;17.02;100.00;100430.69;1471113;88;22292;-81
2023/06/07 03:10:13;;;;;;;6.03;4.77;;;;;;;17.02;100.00;100428.53;1473352;88;22215;-81
2023/06/07 03:12:40;;;;;;;8.43;4.77;;;;;;;17.01;100.00;100428.22;1478218;88;22153;-82
2023/06/07 03:15:07;;;;;;;8.50;5.30;;;;;;;17.01;100.00;100437.06;1453482;88;21383;-81
2023/06/07 03:17:34;;;;;;;6.80;5.83;;;;;;;17.03;100.00;100436.38;1468960;88;22020;-82
2023/06/07 03:20:00;;;;;;;7.83;5.27;;;;;;;17.03;100.00;100431.52;1465780;88;22357;-82
2023/06/07 03:22:27;;;;;;;6.10;4.97;;;;;;;17.03;100.00;100435.04;1445196;89;22622;-81
2023/06/07 03:24:54;;;;;;;8.93;5.00;;;;;;;17.04;100.00;100434.02;1447371;88;21389;-82
2023/06/07 03:27:23;;;;;;;9.67;4.63;;;;;;;17.03;100.00;100435.04;1445926;88;22253;-81
2023/06/07 03:29:48;;;;;;;8.43;5.00;;;;;;;17.03;100.00;100431.03;1457807;88;21560;-81
2023/06/07 03:32:14;;;;;;;10.53;4.87;;;;;;;17.02;100.00;100433.87;1469899;88;22331;-82
2023/06/07 03:34:41;;;;;;;12.40;5.53;;;;;;;17.04;100.00;100436.69;1455519;88;21560;-83
2023/06/07 03:37:08;;;;;;;7.83;4.73;;;;;;;17.06;100.00;100440.01;1469353;88;21434;-83
2023/06/07 03:39:37;;;;;;;5.47;4.40;;;;;;;17.11;100.00;100438.08;1447461;88;21571;-83
2023/06/07 03:42:03;;;;;;;6.17;5.33;;;;;;;17.16;100.00;100441.53;1464445;88;22373;-83
2023/06/07 03:44:29;;;;;;;6.13;4.83;;;;;;;17.19;100.00;100443.83;1465153;88;21397;-83
2023/06/07 03:46:55;;;;;;;8.40;4.23;;;;;;;17.23;100.00;100445.09;1469447;87;21368;-83
2023/06/07 03:49:22;;;;;;;5.90;4.13;;;;;;;17.24;100.00;100442.75;1457235;88;21545;-83
2023/06/07 03:51:49;;;;;;;6.60;3.97;;;;;;;17.27;100.00;100438.36;1460962;87;21576;-82
2023/06/07 03:54:16;;;;;;;6.17;5.03;;;;;;;17.28;100.00;100440.83;1469563;88;21627;-82
2023/06/07 03:56:42;;;;;;;13.23;5.43;;;;;;;17.29;100.00;100437.16;1455293;88;21400;-83
2023/06/07 03:59:08;;;;;;;6.17;5.30;;;;;;;17.29;100.00;100438.48;1464280;88;22272;-81
2023/06/07 04:01:35;;;;;;;5.83;4.30;;;;;;;17.30;100.00;100439.31;1443443;89;21495;-80
2023/06/07 04:04:01;;;;;;;8.57;4.33;;;;;;;17.31;100.00;100442.30;1458631;88;22337;-80
2023/06/07 04:06:28;;;;;;;9.63;4.83;;;;;;;17.36;100.00;100439.88;1449462;88;21516;-80
2023/06/07 04:08:59;;;;;;;10.63;5.00;;;;;;;17.36;100.00;100442.55;1452730;89;21485;-79
2023/06/07 04:11:23;;;;;;;6.57;4.70;;;;;;;17.39;100.00;100445.36;1419910;91;21578;-83
2023/06/07 04:13:49;;;;;;;8.03;4.40;;;;;;;17.43;100.00;100443.43;1451239;88;22314;-83
2023/06/07 04:16:15;;;;;;;5.30;4.80;;;;;;;17.47;100.00;100440.70;1470134;88;21443;-83
2023/06/07 04:18:41;;;;;;;5.97;5.33;;;;;;;17.48;100.00;100441.02;1470045;88;21405;-83
2023/06/07 04:21:08;;;;;;;6.90;4.90;;;;;;;17.51;100.00;100444.64;1478756;88;22410;-82
2023/06/07 04:23:34;;;;;;;5.63;4.97;;;;;;;17.53;100.00;100442.61;1448577;90;21430;-82
2023/06/07 04:26:04;;;;;;;6.97;5.10;;;;;;;17.55;100.00;100441.91;1447331;88;21441;-82
2023/06/07 04:28:30;;;;;;;6.67;5.07;;;;;;;17.55;100.00;100441.91;1451317;89;21450;-82
2023/06/07 04:30:57;;;;;;;6.57;4.87;;;;;;;17.54;100.00;100445.59;1464377;88;23022;-82
2023/06/07 04:33:25;;;;;;;7.17;4.50;;;;;;;17.57;100.00;100447.05;1471504;88;21448;-82
2023/06/07 04:35:51;;;;;;;5.62;4.97;;;;;;;17.62;100.00;100449.16;1474821;88;21457;-83
2023/06/07 04:38:21;;;;;;;7.00;4.60;;;;;;;17.66;100.00;100453.09;1473504;88;21448;-82
2023/06/07 04:40:52;;;;;;;6.17;4.65;;;;;;;17.71;100.00;100452.02;1492364;87;21419;-84
2023/06/07 04:43:18;;;;;;;5.72;4.65;;;;;;;17.75;100.00;100451.93;1473675;88;22350;-84
2023/06/07 04:45:55;;;;;;;5.15;4.10;;;;;;;17.79;100.00;100453.25;1470495;88;21435;-84
2023/06/07 04:48:14;;;;;;;6.80;4.87;;;;;;;17.82;100.00;100458.21;1465125;87;22595;-84
2023/06/07 04:50:43;;;;;;;7.12;5.40;;;;;;;17.78;100.00;100451.58;1475817;87;21523;-83
2023/06/07 04:53:11;;;;;;;6.97;5.10;;;;;;;17.76;100.00;100461.64;1469174;87;21508;-82
2023/06/07 04:55:37;;;;;;;8.68;5.83;;;;;;;17.73;100.00;100456.67;1461616;88;21434;-82
2023/06/07 04:58:05;;;;;;;8.33;5.00;;;;;;;17.71;100.00;100461.38;1470788;88;21494;-81
2023/06/07 05:00:33;;;;;;;6.53;4.53;;;;;;;17.69;100.00;100463.41;1478395;88;21486;-81
2023/06/07 05:03:06;;;;;;;8.98;4.55;;;;;;;17.68;100.00;100468.46;1474470;88;22322;-79
2023/06/07 05:05:29;;;;;;;5.30;4.62;;;;;;;17.64;100.00;100468.55;1466698;87;22550;-80
2023/06/07 05:07:55;;;;;;;5.80;4.47;;;;;;;17.62;100.00;100471.39;1474133;87;21448;-81
2023/06/07 05:10:21;;;;;;;5.05;4.55;;;;;;;17.62;100.00;100475.92;1478267;87;22565;-80
2023/06/07 05:12:47;;;;;;;5.67;5.08;;;;;;;17.60;100.00;100470.75;1472980;87;21375;-81
2023/06/07 05:15:14;;;;;;;9.50;4.47;;;;;;;17.58;100.00;100476.31;1481919;87;21441;-79
2023/06/07 05:17:40;;;;;;;6.08;4.03;;;;;;;17.56;100.00;100475.67;1467966;88;21375;-80
2023/06/07 05:20:11;;;;;;;11.55;4.60;;;;;;;17.56;100.00;100482.88;1466670;88;21361;-80
2023/06/07 05:22:41;;;;;;;5.05;4.55;;;;;;;17.55;100.00;100478.03;1483688;88;22365;-79
2023/06/07 05:25:11;;;;;;;7.05;5.53;;;;;;;17.52;100.00;100483.77;1473333;87;21478;-80
2023/06/07 05:27:38;;;;;;;7.72;5.33;;;;;;;17.53;100.00;100481.92;1467167;88;21546;-79
2023/06/07 05:30:07;;;;;;;9.03;5.08;;;;;;;17.53;100.00;100482.75;1463559;88;21375;-78
2023/06/07 05:32:35;;;;;;;6.20;4.60;;;;;;;17.56;100.00;100486.38;1464460;87;21419;-79
2023/06/07 05:35:03;;;;;;;8.63;5.63;;;;;;;17.57;100.00;100481.33;1470678;87;21597;-80
2023/06/07 05:37:30;;;;;;;9.18;4.90;;;;;;;17.60;100.00;100481.45;1477539;87;21537;-80
2023/06/07 05:39:57;;;;;;;7.47;4.42;;;;;;;17.65;100.00;100483.56;1476646;87;21508;-80
2023/06/07 05:42:24;;;;;;;6.03;4.60;;;;;;;17.71;100.00;100484.95;1465158;88;21448;-80
2023/06/07 05:44:50;;;;;;;7.72;4.62;;;;;;;17.81;100.00;100487.35;1472236;88;22910;-80
2023/06/07 05:47:20;;;;;;;7.35;4.67;;;;;;;17.89;100.00;100481.01;1475724;88;21663;-81
2023/06/07 05:49:46;;;;;;;6.47;4.42;;;;;;;17.96;100.00;100484.58;1476457;87;21427;-81
2023/06/07 05:52:16;;;;;;;12.33;4.33;;;;;;;18.04;100.00;100490.62;1471123;87;21434;-80
2023/06/07 05:54:49;;;;;;;5.22;4.03;;;;;;;18.13;100.00;100481.09;1469953;88;21456;-80
2023/06/07 05:57:16;;;;;;;8.45;4.78;;;;;;;18.22;100.00;100482.08;1476247;88;22410;-80
2023/06/07 05:59:43;;;;;;;8.38;5.10;;;;;;;18.30;100.00;100484.27;1473781;88;22374;-81
2023/06/07 06:02:09;;;;;;;9.90;5.03;;;;;;;18.35;100.00;100479.98;1474568;87;21442;-79
2023/06/07 06:04:35;;;;;;;4.95;4.47;;;;;;;18.41;100.00;100483.72;1475507;88;21479;-81
2023/06/07 06:07:02;;;;;;;7.53;4.87;;;;;;;18.48;100.00;100482.75;1460739;88;21435;-79
2023/06/07 06:09:30;;;;;;;6.45;4.12;;;;;;;18.56;100.00;100478.23;1470390;88;21507;-79
2023/06/07 06:11:56;;;;;;;8.33;4.33;;;;;;;18.68;100.00;100472.13;1472326;88;21463;-80
2023/06/07 06:14:25;;;;;;;6.78;4.42;;;;;;;18.76;100.00;100474.34;1464045;88;21523;-80
2023/06/07 06:16:51;;;;;;;8.33;5.20;;;;;;;18.86;100.00;100474.80;1482392;88;21634;-79
2023/06/07 06:19:18;;;;;;;6.03;4.00;;;;;;;18.94;100.00;100474.63;1488133;88;21447;-79
2023/06/07 06:21:44;;;;;;;4.58;4.17;;;;;;;19.01;100.00;100470.63;1471153;88;22321;-79
2023/06/07 06:24:10;;;;;;;6.92;4.10;;;;;;;19.08;100.00;100468.28;1476939;88;21479;-80
2023/06/07 06:26:36;;;;;;;4.42;3.85;;;;;;;19.18;100.00;100471.08;1476432;88;21590;-79
2023/06/07 06:29:02;;;;;;;5.67;3.98;;;;;;;19.26;100.00;100471.72;1470429;88;21515;-80
2023/06/07 06:31:28;;;;;;;5.03;3.40;;;;;;;19.33;100.00;100473.91;1467395;88;21412;-79
2023/06/07 06:33:55;;;;;;;5.08;4.10;;;;;;;19.42;100.00;100473.70;1469951;88;22042;-79
2023/06/07 06:36:21;;;;;;;4.30;3.70;;;;;;;19.51;100.00;100473.84;1470762;88;21717;-82
2023/06/07 06:38:47;;;;;;;10.47;4.10;;;;;;;19.59;100.00;100474.47;1467760;88;22462;-83
2023/06/07 06:41:13;;;;;;;8.15;4.62;;;;;;;19.63;100.00;100484.27;1463529;88;21478;-83
2023/06/07 06:43:45;;;;;;;4.23;3.83;;;;;;;19.66;100.00;100474.48;1468570;87;21463;-81
2023/06/07 06:46:11;;;;;;;7.17;3.80;;;;;;;19.72;100.00;100473.66;1468805;88;21648;-82
2023/06/07 06:48:51;;;;;;;7.03;3.12;;;;;;;20.01;100.00;100475.61;1473182;88;22315;-81
2023/06/07 06:51:17;;;;;;;6.67;4.15;;;;;;;20.01;100.00;100475.61;1458377;87;21561;-81
2023/06/07 06:53:43;;;;;;;5.05;3.60;;;;;;;20.18;100.00;100481.37;1556435;87;21391;-81
2023/06/07 06:56:10;;;;;;;4.97;4.28;;;;;;;20.18;100.00;100481.37;1403127;87;21539;-83
2023/06/07 06:58:36;;;;;;;7.92;4.30;;;;;;;20.25;100.00;100476.31;1387456;89;22308;-83
2023/06/07 07:01:05;;;;;;;4.35;3.85;;;;;;;20.30;99.78;100483.72;1395022;87;21575;-84
2023/06/07 07:03:33;;;;;;;9.23;4.58;;;;;;;20.30;98.15;100483.72;1413496;87;21427;-82
2023/06/07 07:05:59;;;;;;;6.20;3.72;;;;;;;20.27;98.52;100482.80;1557926;87;21541;-84
2023/06/07 07:08:26;;;;;;;8.83;3.45;;;;;;;20.29;98.45;100486.94;1397064;87;21531;-85
2023/06/07 07:10:52;;;;;;;5.00;4.20;;;;;;;20.34;98.66;100492.19;1397549;88;21330;-83
2023/06/07 07:13:18;;;;;;;6.03;3.45;;;;;;;20.42;98.49;100482.55;1403164;88;21467;-83
2023/06/07 07:15:45;;;;;;;5.35;4.25;;;;;;;20.46;97.89;100483.80;1462296;88;22362;-84
2023/06/07 07:18:11;;;;;;;10.72;4.97;;;;;;;20.51;97.54;100486.17;1466232;88;21397;-82
2023/06/07 07:20:39;;;;;;;6.97;3.52;;;;;;;20.56;97.21;100482.86;1475813;87;21552;-83
2023/06/07 07:23:05;;;;;;;5.75;3.40;;;;;;;20.60;97.07;100486.80;1472069;87;21390;-83
2023/06/07 07:25:31;;;;;;;3.52;3.22;;;;;;;20.60;96.05;100492.17;1464691;88;21485;-80
2023/06/07 07:27:58;;;;;;;6.97;3.47;;;;;;;20.59;94.38;100485.12;1471744;87;21618;-82
2023/06/07 07:30:26;;;;;;;4.95;3.50;;;;;;;20.50;93.79;100484.50;1469831;87;21611;-83
2023/06/07 07:32:56;;;;;;;5.90;3.65;;;;;;;20.40;92.71;100488.66;1469370;88;21508;-83
2023/06/07 07:35:23;;;;;;;4.45;3.25;;;;;;;20.31;92.37;100485.89;1477676;88;21684;-82
2023/06/07 07:38:00;;;;;;;8.60;3.67;;;;;;;20.17;91.81;100498.52;1551748;88;21383;-82
2023/06/07 07:40:25;;;;;;;4.80;3.12;;;;;;;20.00;92.22;100480.69;1557664;87;21353;-83
2023/06/07 07:42:51;;;;;;;8.03;3.92;;;;;;;19.76;92.29;100498.23;1449935;88;22489;-83
2023/06/07 07:45:17;;;;;;;4.90;3.75;;;;;;;19.76;92.29;100498.23;1467853;88;21396;-83
2023/06/07 07:47:45;;;;;;;11.10;3.50;;;;;;;19.63;93.12;100486.13;1475389;87;21685;-83
2023/06/07 07:50:11;;;;;;;9.80;3.80;;;;;;;19.63;93.12;100486.13;1471261;87;21440;-83
2023/06/07 07:52:37;;;;;;;4.83;3.70;;;;;;;19.64;93.58;100503.36;1469828;88;21596;-82
2023/06/07 07:55:06;;;;;;;4.97;3.45;;;;;;;19.58;92.94;100506.86;1472076;88;21419;-83
2023/06/07 07:57:33;;;;;;;4.58;4.08;;;;;;;19.52;93.02;100498.30;1394191;87;22293;-82
2023/06/07 07:59:59;;;;;;;4.55;3.08;;;;;;;19.46;92.79;100505.83;1546080;88;21316;-84
2023/06/07 08:02:25;;;;;;;9.78;3.30;;;;;;;19.46;93.42;100508.51;1407917;87;21503;-82
2023/06/07 08:04:53;;;;;;;11.05;3.52;;;;;;;19.44;92.78;100514.06;1403496;88;21531;-83
2023/06/07 08:07:21;;;;;;;14.18;3.58;;;;;;;19.40;92.79;100512.83;1395628;88;21413;-82
2023/06/07 08:09:47;;;;;;;7.25;3.70;;;;;;;19.37;93.04;100522.11;1444496;88;21568;-84
2023/06/07 08:12:16;;;;;;;11.35;3.87;;;;;;;19.31;93.17;100526.95;1397392;88;21405;-84
2023/06/07 08:14:42;;;;;;;4.80;3.58;;;;;;;19.27;93.76;100533.73;1447667;88;21544;-85
2023/06/07 08:17:08;;;;;;;17.05;3.92;;;;;;;19.19;94.05;100540.65;1468370;88;22431;-86
2023/06/07 08:19:37;;;;;;;4.95;3.20;;;;;;;19.04;94.46;100538.61;1474774;88;21425;-83
2023/06/07 08:22:03;;;;;;;4.58;3.37;;;;;;;18.88;95.05;100541.96;1473724;88;21596;-82
2023/06/07 08:24:31;;;;;;;6.67;4.28;;;;;;;18.78;94.98;100541.48;1471250;87;21434;-85
2023/06/07 08:26:57;;;;;;;7.35;3.87;;;;;;;18.69;95.52;100543.98;1466376;88;22264;-84
2023/06/07 08:29:25;;;;;;;8.63;3.83;;;;;;;18.64;95.95;100543.75;1468729;88;21515;-86
2023/06/07 08:31:51;;;;;;;4.70;3.75;;;;;;;18.58;96.52;100540.52;1476683;88;21463;-84
2023/06/07 08:34:19;;;;;;;6.22;4.12;;;;;;;18.43;96.28;100541.46;1480149;87;21470;-83
2023/06/07 08:36:47;;;;;;;4.90;3.40;;;;;;;18.35;97.43;100542.13;1473591;88;21456;-85
2023/06/07 08:39:14;;;;;;;4.00;3.15;;;;;;;18.25;97.30;100537.95;1471260;88;21640;-86
2023/06/07 08:41:40;;;;;;;5.28;3.17;;;;;;;18.18;97.55;100538.91;1474155;88;21463;-85
2023/06/07 08:44:06;;;;;;;4.90;3.87;;;;;;;18.11;98.74;100532.69;1435179;88;21471;-87
2023/06/07 08:46:33;;;;;;;9.70;3.62;;;;;;;18.07;99.58;100535.42;1471873;87;22389;-85
2023/06/07 08:49:01;;;;;;;8.18;3.90;;;;;;;18.04;100.00;100536.14;1471973;87;21566;-85
2023/06/07 08:51:28;;;;;;;8.38;3.67;;;;;;;18.04;100.00;100528.63;1464794;88;21449;-83
2023/06/07 08:53:58;;;;;;;10.32;4.85;;;;;;;18.06;100.00;100534.59;1469665;87;22132;-83
2023/06/07 08:56:27;;;;;;;7.10;4.40;;;;;;;18.09;100.00;100528.03;1556509;87;22382;-83
2023/06/07 08:58:56;;;;;;;5.85;3.98;;;;;;;18.15;100.00;100529.92;1472067;87;21419;-83
2023/06/07 09:01:23;;;;;;;7.72;4.42;;;;;;;18.23;100.00;100527.10;1472771;87;21537;-84
2023/06/07 09:03:52;;;;;;;6.30;3.58;;;;;;;18.35;100.00;100529.55;1475819;88;21464;-81
2023/06/07 09:06:21;;;;;;;5.85;3.67;;;;;;;18.37;100.00;100534.20;1472741;87;21492;-83
2023/06/07 09:08:50;;;;;;;7.22;4.37;;;;;;;18.39;100.00;100536.19;1398729;88;21405;-83
2023/06/07 09:11:18;;;;;;;7.70;3.77;;;;;;;18.38;100.00;100529.16;1395499;88;21516;-84
2023/06/07 09:13:45;;;;;;;7.73;4.10;;;;;;;18.39;100.00;100530.83;1529533;88;21605;-86
2023/06/07 09:16:13;;;;;;;6.80;4.42;;;;;;;18.44;100.00;100530.22;1468361;87;21522;-81
2023/06/07 09:18:54;;;;;;;12.30;4.15;;;;;;;18.45;100.00;100523.34;1470633;87;22329;-84
2023/06/07 09:21:27;;;;;;;5.30;3.45;;;;;;;18.48;100.00;100524.28;1468043;87;22396;-85
2023/06/07 09:23:56;;;;;;;;;;;;;;;18.54;100.00;100531.23;1475219;87;21515;-85
2023/06/07 09:26:23;;;;;;;7.67;4.25;;;;;;;18.55;100.00;100523.49;1549866;88;20229;-85
2023/06/07 09:28:51;;;;;;;10.48;3.35;;;;;;;18.58;100.00;100523.09;1397185;87;21397;-84
2023/06/07 09:31:32;;;;;;;5.42;3.47;;;;;;;18.60;100.00;100520.53;1414025;87;21560;-84
2023/06/07 09:34:20;;;;;;;4.53;3.87;;;;;;;18.63;100.00;100528.18;1439942;88;21586;-87
2023/06/07 09:36:57;;;;;;;4.22;3.42;;;;;;;18.68;100.00;100527.08;1475472;88;21435;-85
2023/06/07 09:39:32;;;;;;;8.13;3.87;;;;;;;18.71;100.00;100525.86;1479990;88;21618;-84
2023/06/07 09:41:59;;;;;;;5.27;3.80;;;;;;;18.75;100.00;100522.30;1474341;88;21597;-85
2023/06/07 09:44:27;;;;;;;10.78;4.65;;;;;;;18.81;100.00;100526.86;1463383;88;21427;-82
2023/06/07 09:46:57;;;;;;;5.58;3.83;;;;;;;18.86;100.00;100523.89;1472703;88;21442;-81
2023/06/07 09:49:34;;;;;;;11.25;3.75;;;;;;;18.94;100.00;100520.22;1462476;88;22912;-84
2023/06/07 09:52:11;;;;;;;6.65;3.80;;;;;;;19.02;100.00;100516.03;1470621;88;21449;-83
2023/06/07 09:54:40;;;;;;;10.35;4.12;;;;;;;19.10;100.00;100521.71;1472736;87;21544;-84
2023/06/07 09:57:11;;;;;;;;;;;;;;;19.16;100.00;100519.56;1474981;88;22148;-85
2023/06/07 09:59:41;;;;;;;7.97;3.20;;;;;;;19.25;100.00;100513.50;1470848;88;20281;-83
2023/06/07 10:02:29;;;;;;;8.85;4.20;;;;;;;19.30;100.00;100516.41;1465588;88;21588;-85
2023/06/07 10:04:58;;;;;;;6.28;3.37;;;;;;;19.34;100.00;100517.16;1473334;88;21493;-83
2023/06/07 10:07:30;;;;;;;6.25;3.65;;;;;;;19.35;100.00;100514.77;1472773;87;21634;-84
2023/06/07 10:09:58;;;;;;;6.03;2.95;;;;;;;19.44;100.00;100511.91;1473882;87;21559;-82
2023/06/07 10:12:35;;;;;;;7.05;3.80;;;;;;;19.53;100.00;100513.36;1466143;88;21521;-85
2023/06/07 10:15:09;;;;;;;7.53;4.15;;;;;;;19.62;100.00;100513.47;1463781;88;21537;-81
2023/06/07 10:17:55;;;;;;;4.35;3.17;;;;;;;19.69;100.00;100517.03;1466810;88;21626;-82
2023/06/07 10:20:26;;;;;;;7.62;3.62;;;;;;;19.75;100.00;100516.20;1408824;88;22500;-83
2023/06/07 10:23:00;;;;;;;9.13;3.47;;;;;;;19.85;99.90;100513.10;1392624;89;21368;-81
2023/06/07 10:25:31;;;;;;;5.90;3.47;;;;;;;20.01;99.75;100509.19;1555428;87;21505;-80
2023/06/07 10:28:07;;;;;;;;;;;;;;;20.24;99.26;100510.92;1510813;88;21478;-82
2023/06/07 10:30:36;;;;;;;5.55;3.85;;;;;;;20.46;97.95;100501.28;1472158;88;20515;-81
2023/06/07 10:33:04;;;;;;;6.50;3.47;;;;;;;20.69;97.45;100509.72;1473115;87;21965;-83
2023/06/07 10:35:33;;;;;;;;;;;;;;;20.84;95.82;100508.63;1479933;87;22060;-84
2023/06/07 10:37:59;;;;;;;4.40;3.10;;;;;;;20.93;93.29;100512.72;1474039;88;20267;-84
2023/06/07 10:44:26;;;;;;;4.25;3.20;;;;;;;21.23;91.72;100511.63;1502749;88;21383;-81
2023/06/07 10:47:32;;;;;;;5.08;2.90;;;;;;;21.53;90.15;100498.44;1486070;88;22402;-85
2023/06/07 10:50:00;;;;;;;3.62;2.58;;;;;;;21.63;86.93;100496.08;1464375;88;21699;-84
2023/06/07 10:52:26;;;;;;;5.45;3.00;;;;;;;21.90;89.41;100490.50;1466417;88;21471;-85
2023/06/07 10:54:53;;;;;;;4.17;3.10;;;;;;;22.00;85.60;100485.41;1474567;88;21470;-84
2023/06/07 10:57:37;;;;;;;3.45;3.12;;;;;;;22.12;86.56;100490.90;1472328;88;21508;-85
2023/06/07 11:00:31;;;;;;;7.17;3.30;;;;;;;22.27;86.07;100489.25;1556296;88;21340;-88
2023/06/07 11:03:12;;;;;;;6.35;3.12;;;;;;;22.36;83.01;100482.52;1556458;88;21354;-86
2023/06/07 11:06:01;;;;;;;3.60;3.00;;;;;;;22.72;84.45;100479.50;1405968;87;21501;-84
2023/06/07 11:08:33;;;;;;;4.20;2.85;;;;;;;23.02;83.76;100486.83;1450051;87;22395;-86
2023/06/07 11:11:03;;;;;;;4.20;3.10;;;;;;;23.23;80.84;100482.81;1470378;88;22906;-86
2023/06/07 11:13:56;;;;;;;5.42;3.30;;;;;;;23.24;82.10;100477.17;1471011;88;22914;-85
2023/06/07 11:16:31;;;;;;;3.12;2.72;;;;;;;23.56;82.92;100478.25;1555618;88;21478;-85
2023/06/07 11:19:03;;;;;;;3.37;2.95;;;;;;;23.61;79.17;100475.16;1434813;90;21618;-87
2023/06/07 11:21:30;;;;;;;6.15;3.95;;;;;;;23.68;81.01;100474.22;1437745;91;21589;-84
2023/06/07 11:24:12;;;;;;;3.58;2.87;;;;;;;23.60;80.33;100476.22;1431945;90;21474;-84
2023/06/07 11:26:38;;;;;;;3.55;3.00;;;;;;;23.49;77.97;100477.55;1433946;91;21505;-84
2023/06/07 11:29:07;;;;;;;7.30;3.42;;;;;;;23.68;80.21;100468.81;1435982;91;22583;-81
2023/06/07 11:31:34;;;;;;;6.65;3.10;;;;;;;23.86;80.39;100474.98;1511431;90;22306;-84
2023/06/07 11:34:00;;;;;;;6.22;3.40;;;;;;;23.92;78.24;100467.82;1402835;91;22723;-83
2023/06/07 11:36:37;;;;;;;4.42;2.98;;;;;;;23.80;78.20;100474.58;1434529;91;21459;-84
2023/06/07 11:39:09;;;;;;;7.87;3.30;;;;;;;23.80;78.43;100474.58;1516900;91;21357;-85
2023/06/07 11:41:35;;;;;;;7.40;3.20;;;;;;;23.79;78.28;100471.56;1364772;91;22207;-84